Time;durP1;ratioP1;P1;durP2;ratioP2;P2;SDS_P1;SDS_P2;PMS_P1;PMS_P2;Temp;Humidity;BMP_temperature;BMP_pressure;BME280_temperature;BME280_humidity;BME280_pressure;Samples;Min_cycle;Max_cycle;Signal;HPM_P1;HPM_P2
2022/06/24 00:01:38;;;;;;;6.60;3.53;;;21.90;1.00;;;;;;5065138;28;20503;-77
2022/06/24 00:04:07;;;;;;;6.17;3.50;;;21.90;1.00;;;;;;5065898;28;20461;-75
2022/06/24 00:06:46;;;;;;;7.57;4.00;;;21.80;1.00;;;;;;5048374;28;20467;-75
2022/06/24 00:09:14;;;;;;;6.73;3.93;;;21.70;1.00;;;;;;5055618;28;20454;-75
2022/06/24 00:11:43;;;;;;;6.40;3.67;;;21.70;1.00;;;;;;5046464;28;20483;-75
2022/06/24 00:14:11;;;;;;;7.57;4.07;;;21.70;1.00;;;;;;5065317;28;21001;-75
2022/06/24 00:16:56;;;;;;;7.17;3.77;;;21.70;1.00;;;;;;5058274;28;20570;-75
2022/06/24 00:19:23;;;;;;;6.40;4.10;;;21.70;1.00;;;;;;5045643;28;20457;-75
2022/06/24 00:22:07;;;;;;;7.43;4.20;;;21.60;1.00;;;;;;5065150;28;20475;-76
2022/06/24 00:24:36;;;;;;;6.70;3.53;;;21.50;1.00;;;;;;5059268;28;20470;-75
2022/06/24 00:27:19;;;;;;;7.30;3.77;;;21.50;1.00;;;;;;5044209;28;20448;-76
2022/06/24 00:29:47;;;;;;;7.27;4.23;;;21.50;1.00;;;;;;5053720;28;20965;-75
2022/06/24 00:32:14;;;;;;;7.50;3.80;;;21.40;1.00;;;;;;5052236;28;20559;-76
2022/06/24 00:34:42;;;;;;;6.90;3.80;;;21.40;1.00;;;;;;5056362;28;20957;-77
2022/06/24 00:37:26;;;;;;;9.70;4.40;;;21.40;1.00;;;;;;5048427;28;20585;-76
2022/06/24 00:39:53;;;;;;;8.33;3.70;;;21.30;1.00;;;;;;5050703;28;20471;-76
2022/06/24 00:42:23;;;;;;;7.17;3.80;;;21.20;1.00;;;;;;5043843;28;20490;-75
2022/06/24 00:45:01;;;;;;;6.53;4.20;;;21.20;1.00;;;;;;5049300;28;20953;-76
2022/06/24 00:47:29;;;;;;;8.33;4.60;;;21.20;1.00;;;;;;5049838;28;21023;-76
2022/06/24 00:49:59;;;;;;;7.40;4.20;;;21.20;1.00;;;;;;5044161;28;20497;-76
2022/06/24 00:52:28;;;;;;;7.00;4.37;;;21.10;1.00;;;;;;5035302;28;20495;-75
2022/06/24 00:54:55;;;;;;;9.40;4.20;;;21.10;1.00;;;;;;5054472;28;20801;-76
2022/06/24 00:57:24;;;;;;;7.30;4.57;;;21.10;1.00;;;;;;5048194;28;20461;-75
2022/06/24 00:59:51;;;;;;;7.33;4.40;;;21.00;1.00;;;;;;5052874;28;20425;-75
2022/06/24 01:02:19;;;;;;;6.90;4.30;;;21.00;1.00;;;;;;5037843;28;20579;-75
2022/06/24 01:04:46;;;;;;;9.70;4.30;;;20.90;1.00;;;;;;5048883;28;20486;-76
2022/06/24 01:07:13;;;;;;;9.90;5.10;;;20.90;1.00;;;;;;5049797;28;20475;-76
2022/06/24 01:09:41;;;;;;;7.40;4.73;;;20.90;1.00;;;;;;5047540;28;20457;-76
2022/06/24 01:12:09;;;;;;;12.07;4.67;;;20.80;1.00;;;;;;5057004;28;20471;-77
2022/06/24 01:14:38;;;;;;;7.93;4.60;;;20.80;1.00;;;;;;5048698;28;20460;-76
2022/06/24 01:17:05;;;;;;;6.30;4.07;;;20.80;1.00;;;;;;5050362;28;20468;-75
2022/06/24 01:19:32;;;;;;;7.00;4.40;;;20.80;1.00;;;;;;5050017;28;20466;-76
2022/06/24 01:22:00;;;;;;;7.13;4.30;;;20.70;1.00;;;;;;5033752;28;20433;-77
2022/06/24 01:24:27;;;;;;;8.87;4.90;;;20.70;1.00;;;;;;5050162;28;20459;-76
2022/06/24 01:26:57;;;;;;;7.60;4.20;;;20.70;1.00;;;;;;5049762;28;24182;-76
2022/06/24 01:29:24;;;;;;;8.60;5.00;;;20.60;1.00;;;;;;5036818;28;20480;-75
2022/06/24 01:31:53;;;;;;;7.53;5.20;;;20.60;1.00;;;;;;5055586;28;20476;-76
2022/06/24 01:34:21;;;;;;;7.60;5.10;;;20.60;1.00;;;;;;5059629;28;20872;-76
2022/06/24 01:36:48;;;;;;;8.70;4.77;;;20.60;1.00;;;;;;5060751;28;20870;-75
2022/06/24 01:39:16;;;;;;;7.70;5.30;;;20.50;1.00;;;;;;5062796;28;20470;-77
2022/06/24 01:41:43;;;;;;;7.57;5.10;;;20.50;1.00;;;;;;5059883;28;20906;-77
2022/06/24 01:44:10;;;;;;;8.90;5.10;;;20.50;1.00;;;;;;5060208;28;20491;-76
2022/06/24 01:46:37;;;;;;;7.73;4.80;;;20.50;1.00;;;;;;5062764;28;20471;-76
2022/06/24 01:49:05;;;;;;;7.50;4.80;;;20.50;1.00;;;;;;5063287;28;20466;-75
2022/06/24 01:51:33;;;;;;;7.60;5.03;;;20.40;1.00;;;;;;5060554;28;20566;-75
2022/06/24 01:54:02;;;;;;;8.50;4.93;;;20.40;1.00;;;;;;5061443;28;20455;-75
2022/06/24 01:56:30;;;;;;;8.57;4.90;;;20.40;1.00;;;;;;5063673;28;21017;-76
2022/06/24 01:58:57;;;;;;;8.40;5.00;;;20.40;1.00;;;;;;5060129;28;20468;-76
2022/06/24 02:01:24;;;;;;;7.77;4.77;;;20.40;1.00;;;;;;5060996;28;20479;-75
2022/06/24 02:03:51;;;;;;;7.60;5.27;;;20.30;1.00;;;;;;5063443;28;20538;-76
2022/06/24 02:06:18;;;;;;;7.90;5.50;;;20.30;1.00;;;;;;5066451;28;20467;-75
2022/06/24 02:08:47;;;;;;;7.67;5.60;;;20.30;1.00;;;;;;5062857;28;20486;-75
2022/06/24 02:14:01;;;;;;;8.43;5.30;;;20.30;1.00;;;;;;5063190;28;20462;-75
2022/06/24 02:16:28;;;;;;;11.33;5.80;;;20.30;1.00;;;;;;5060862;28;20459;-75
2022/06/24 02:18:56;;;;;;;9.70;5.53;;;20.20;1.00;;;;;;5061874;28;20523;-77
2022/06/24 02:21:24;;;;;;;7.33;4.77;;;20.20;1.00;;;;;;5035000;28;20502;-76
2022/06/24 02:23:52;;;;;;;8.90;5.33;;;20.20;1.00;;;;;;5054012;28;20448;-77
2022/06/24 02:26:19;;;;;;;7.97;5.30;;;20.10;1.00;;;;;;5033322;28;20565;-75
2022/06/24 02:28:48;;;;;;;8.67;5.90;;;20.10;1.00;;;;;;5067239;28;20478;-77
2022/06/24 02:31:17;;;;;;;8.87;6.30;;;20.10;1.00;;;;;;5046007;28;20478;-76
2022/06/24 02:33:44;;;;;;;9.43;5.77;;;20.10;1.00;;;;;;5041543;28;21057;-76
2022/06/24 02:36:11;;;;;;;8.47;5.53;;;20.10;1.00;;;;;;5065095;28;20464;-77
2022/06/24 02:38:37;;;;;;;10.30;5.50;;;20.00;1.00;;;;;;5051725;28;20452;-76
2022/06/24 02:41:04;;;;;;;8.10;5.83;;;20.00;1.00;;;;;;5060959;28;20932;-76
2022/06/24 02:43:33;;;;;;;7.80;5.40;;;20.00;1.00;;;;;;5047136;28;20460;-77
2022/06/24 02:46:01;;;;;;;9.03;5.77;;;20.00;1.00;;;;;;5048003;28;20468;-76
2022/06/24 02:48:31;;;;;;;8.90;5.90;;;19.90;1.00;;;;;;5062054;28;20855;-76
2022/06/24 02:50:59;;;;;;;9.70;6.50;;;19.90;1.00;;;;;;5052664;28;20525;-76
2022/06/24 02:53:28;;;;;;;9.00;6.20;;;19.90;1.00;;;;;;5052117;28;20955;-77
2022/06/24 02:55:57;;;;;;;10.00;6.10;;;19.90;1.00;;;;;;5048760;28;20457;-76
2022/06/24 02:58:24;;;;;;;9.37;6.10;;;19.90;1.00;;;;;;5050776;28;20483;-75
2022/06/24 03:00:51;;;;;;;10.07;5.87;;;19.80;1.00;;;;;;5051008;28;20464;-74
2022/06/24 03:03:20;;;;;;;9.80;6.20;;;19.80;1.00;;;;;;5053683;28;20456;-76
2022/06/24 03:05:49;;;;;;;8.63;5.53;;;19.80;1.00;;;;;;5059051;28;20962;-77
2022/06/24 03:08:18;;;;;;;10.60;6.60;;;19.90;1.00;;;;;;5051318;28;20462;-75
2022/06/24 03:10:46;;;;;;;9.60;6.10;;;19.80;1.00;;;;;;5048370;28;20903;-76
2022/06/24 03:13:13;;;;;;;8.83;5.90;;;19.80;1.00;;;;;;5050564;28;20483;-75
2022/06/24 03:15:41;;;;;;;12.73;6.20;;;19.80;1.00;;;;;;5042067;28;20516;-76
2022/06/24 03:18:08;;;;;;;9.30;6.20;;;19.80;1.00;;;;;;5053355;28;21391;-75
2022/06/24 03:20:35;;;;;;;8.13;6.13;;;19.80;1.00;;;;;;5049429;28;20469;-76
2022/06/24 03:23:04;;;;;;;8.60;5.90;;;19.80;1.00;;;;;;5052465;28;20440;-76
2022/06/24 03:25:31;;;;;;;11.20;6.57;;;19.80;1.00;;;;;;5042172;28;20993;-74
2022/06/24 03:27:58;;;;;;;8.43;5.87;;;19.80;1.00;;;;;;5042580;28;20465;-75
2022/06/24 03:30:25;;;;;;;14.00;7.00;;;19.80;1.00;;;;;;5049792;28;20476;-75
2022/06/24 03:32:52;;;;;;;12.37;7.33;;;19.80;1.00;;;;;;5043911;28;21007;-76
2022/06/24 03:35:19;;;;;;;10.27;6.43;;;19.80;1.00;;;;;;5043487;28;20456;-76
2022/06/24 03:37:46;;;;;;;10.63;6.30;;;19.70;1.00;;;;;;5049642;28;20565;-75
2022/06/24 03:40:14;;;;;;;9.03;6.40;;;19.70;1.00;;;;;;5060022;28;20475;-76
2022/06/24 03:42:41;;;;;;;10.10;6.00;;;19.70;1.00;;;;;;5064312;28;20486;-76
2022/06/24 03:45:09;;;;;;;8.33;6.33;;;19.70;1.00;;;;;;5048059;28;20947;-75
2022/06/24 03:47:36;;;;;;;10.67;8.00;;;19.70;1.00;;;;;;5055693;28;20464;-75
2022/06/24 03:50:03;;;;;;;11.33;6.60;;;19.70;1.00;;;;;;5052696;28;21414;-76
2022/06/24 03:52:30;;;;;;;27.73;8.50;;;19.70;1.00;;;;;;5051927;28;20991;-75
2022/06/24 03:54:57;;;;;;;11.77;6.70;;;19.70;1.00;;;;;;5050089;28;20464;-76
2022/06/24 03:57:25;;;;;;;11.80;7.10;;;19.80;1.00;;;;;;5044400;28;20469;-76
2022/06/24 03:59:52;;;;;;;9.20;6.10;;;19.80;1.00;;;;;;5052893;28;20558;-76
2022/06/24 04:02:21;;;;;;;9.40;6.87;;;19.80;1.00;;;;;;5047330;28;20463;-77
2022/06/24 04:04:48;;;;;;;9.03;6.67;;;19.80;1.00;;;;;;5054906;28;20429;-77
2022/06/24 04:07:15;;;;;;;10.00;6.30;;;19.80;1.00;;;;;;5056495;28;20480;-76
2022/06/24 04:09:42;;;;;;;12.40;7.80;;;19.80;1.00;;;;;;5051706;28;20478;-77
2022/06/24 04:12:10;;;;;;;9.90;6.90;;;19.70;1.00;;;;;;5061407;28;20456;-77
2022/06/24 04:17:22;;;;;;;12.63;7.83;;;19.90;1.00;;;;;;5048255;28;20457;-76
2022/06/24 04:19:52;;;;;;;10.10;6.83;;;19.90;1.00;;;;;;5056324;28;20492;-78
2022/06/24 04:22:19;;;;;;;9.47;6.73;;;19.80;1.00;;;;;;5054981;28;20972;-76
2022/06/24 04:24:46;;;;;;;9.23;6.47;;;19.90;1.00;;;;;;5058710;28;20470;-77
2022/06/24 04:27:13;;;;;;;11.03;7.00;;;20.00;1.00;;;;;;5061473;28;20526;-76
2022/06/24 04:29:44;;;;;;;9.00;6.63;;;20.00;1.00;;;;;;5058428;28;20484;-79
2022/06/24 04:32:11;;;;;;;11.40;7.70;;;20.00;1.00;;;;;;5050972;28;20460;-79
2022/06/24 04:34:38;;;;;;;8.73;6.30;;;20.00;1.00;;;;;;5050656;28;20477;-79
2022/06/24 04:37:06;;;;;;;10.77;6.73;;;20.00;1.00;;;;;;5052114;28;20488;-79
2022/06/24 04:39:33;;;;;;;10.03;7.87;;;20.10;1.00;;;;;;5057140;28;20883;-80
2022/06/24 04:42:02;;;;;;;9.80;6.70;;;20.20;1.00;;;;;;5067543;28;20534;-80
2022/06/24 04:44:29;;;;;;;9.80;7.17;;;20.20;1.00;;;;;;5062458;28;20576;-80
2022/06/24 04:47:00;;;;;;;11.63;6.77;;;20.30;1.00;;;;;;5053485;28;20974;-81
2022/06/24 04:49:27;;;;;;;11.17;6.97;;;20.40;1.00;;;;;;5058315;28;21053;-80
2022/06/24 04:51:54;;;;;;;10.53;7.03;;;20.40;1.00;;;;;;5059682;28;20497;-80
2022/06/24 04:54:23;;;;;;;10.83;6.23;;;20.50;1.00;;;;;;5061907;28;20524;-80
2022/06/24 04:56:50;;;;;;;11.10;7.00;;;20.50;1.00;;;;;;5060288;28;20402;-80
2022/06/24 04:59:17;;;;;;;9.80;6.60;;;20.60;1.00;;;;;;5062561;28;20543;-79
2022/06/24 05:01:44;;;;;;;10.30;6.43;;;20.70;1.00;;;;;;5057676;28;20426;-77
2022/06/24 05:04:13;;;;;;;10.63;6.20;;;20.70;1.00;;;;;;5043611;28;20461;-78
2022/06/24 05:06:40;;;;;;;12.73;7.23;;;20.80;1.00;;;;;;5058314;28;20956;-78
2022/06/24 05:09:07;;;;;;;8.67;5.40;;;20.90;1.00;;;;;;5056938;28;21244;-78
2022/06/24 05:11:34;;;;;;;7.90;5.53;;;21.00;1.00;;;;;;5051333;28;20881;-77
2022/06/24 05:14:04;;;;;;;9.60;6.30;;;21.10;1.00;;;;;;5062580;28;20529;-79
2022/06/24 05:16:31;;;;;;;13.23;7.17;;;21.10;1.00;;;;;;5056200;28;20594;-79
2022/06/24 05:18:58;;;;;;;8.20;6.10;;;21.20;1.00;;;;;;5057921;28;20460;-78
2022/06/24 05:21:26;;;;;;;10.17;6.00;;;21.30;1.00;;;;;;5055650;28;20463;-78
2022/06/24 05:23:54;;;;;;;9.63;6.10;;;21.50;1.00;;;;;;5041135;28;20568;-79
2022/06/24 05:26:21;;;;;;;10.73;6.50;;;21.50;1.00;;;;;;5054535;28;20539;-77
2022/06/24 05:28:48;;;;;;;8.57;5.70;;;21.70;1.00;;;;;;5050003;28;20539;-77
2022/06/24 05:31:14;;;;;;;9.43;5.67;;;21.80;1.00;;;;;;5055449;28;20483;-76
2022/06/24 05:33:41;;;;;;;8.60;5.60;;;21.80;1.00;;;;;;5055330;28;20828;-76
2022/06/24 05:36:09;;;;;;;8.70;5.83;;;21.90;1.00;;;;;;5052305;28;20468;-77
2022/06/24 05:38:41;;;;;;;8.87;5.90;;;22.00;1.00;;;;;;5049350;28;20470;-76
2022/06/24 05:41:08;;;;;;;8.03;5.40;;;22.20;1.00;;;;;;5064381;28;20556;-78
2022/06/24 05:43:35;;;;;;;10.17;5.87;;;22.30;1.00;;;;;;5065753;28;20458;-76
2022/06/24 05:46:05;;;;;;;10.43;6.03;;;22.40;1.00;;;;;;5052071;28;21007;-75
2022/06/24 05:48:33;;;;;;;9.20;5.87;;;22.60;1.00;;;;;;5054147;28;21070;-79
2022/06/24 05:51:00;;;;;;;7.87;5.70;;;22.70;1.00;;;;;;5061754;28;20426;-78
2022/06/24 05:56:15;;;;;;;8.77;5.40;;;23.00;1.00;;;;;;5053371;28;20575;-81
2022/06/24 05:58:41;;;;;;;9.80;4.90;;;23.20;1.00;;;;;;5070807;28;20454;-79
2022/06/24 06:01:10;;;;;;;10.77;5.90;;;23.30;1.00;;;;;;5066431;28;20428;-80
2022/06/24 06:03:38;;;;;;;9.93;5.77;;;23.40;1.00;;;;;;5064059;28;21382;-81
2022/06/24 06:06:06;;;;;;;9.70;5.17;;;23.50;1.00;;;;;;5065063;28;20471;-78
2022/06/24 06:08:33;;;;;;;11.63;5.20;;;23.70;1.00;;;;;;5055231;28;20456;-78
2022/06/24 06:11:00;;;;;;;8.17;4.13;;;23.70;1.00;;;;;;5066235;28;20431;-78
2022/06/24 06:13:28;;;;;;;13.30;7.00;;;23.90;1.00;;;;;;5064522;28;22117;-84
2022/06/24 06:15:55;;;;;;;9.13;5.23;;;24.00;1.00;;;;;;5067009;28;20529;-82
2022/06/24 06:18:22;;;;;;;8.90;5.10;;;24.00;1.00;;;;;;5063994;28;21188;-76
2022/06/24 06:20:50;;;;;;;8.90;5.53;;;24.10;1.00;;;;;;5060860;28;20420;-83
2022/06/24 06:23:24;;;;;;;9.67;4.90;;;24.20;1.00;;;;;;5066660;28;20487;-76
2022/06/24 06:25:52;;;;;;;8.33;5.20;;;24.40;1.00;;;;;;5064478;28;20467;-76
2022/06/24 06:28:19;;;;;;;7.70;4.70;;;24.50;1.00;;;;;;5066363;28;20697;-76
2022/06/24 06:30:47;;;;;;;8.53;5.13;;;24.60;1.00;;;;;;5066796;28;20458;-76
2022/06/24 06:33:14;;;;;;;12.90;5.00;;;24.60;1.00;;;;;;5064126;28;20541;-75
2022/06/24 06:35:41;;;;;;;9.00;5.20;;;24.60;1.00;;;;;;5070283;28;20538;-75
2022/06/24 06:38:09;;;;;;;10.23;4.77;;;24.70;1.00;;;;;;5067304;28;20559;-76
2022/06/24 06:40:37;;;;;;;7.93;4.30;;;24.80;1.00;;;;;;5057568;28;20479;-76
2022/06/24 06:43:05;;;;;;;9.23;4.60;;;24.90;1.00;;;;;;5051138;28;20476;-75
2022/06/24 06:45:34;;;;;;;12.13;5.27;;;24.90;1.00;;;;;;5049763;28;20536;-76
2022/06/24 06:48:03;;;;;;;9.23;5.20;;;25.00;1.00;;;;;;5057979;28;20625;-76
2022/06/24 06:50:31;;;;;;;11.77;5.20;;;25.10;1.00;;;;;;5044366;28;20532;-76
2022/06/24 06:52:58;;;;;;;7.57;4.70;;;25.20;1.00;;;;;;5054632;28;20608;-76
2022/06/24 06:55:25;;;;;;;8.83;4.93;;;25.30;1.00;;;;;;5047478;28;20458;-76
2022/06/24 06:57:52;;;;;;;7.60;4.60;;;25.40;1.00;;;;;;5055306;28;20471;-76
2022/06/24 07:00:20;;;;;;;9.93;4.60;;;25.40;1.00;;;;;;5060871;28;20464;-75
2022/06/24 07:02:48;;;;;;;8.00;4.70;;;25.40;1.00;;;;;;5057739;28;20456;-75
2022/06/24 07:05:17;;;;;;;8.10;4.40;;;25.50;1.00;;;;;;5056447;28;20433;-76
2022/06/24 07:07:45;;;;;;;9.17;4.40;;;25.70;1.00;;;;;;5054857;28;20469;-77
2022/06/24 07:10:12;;;;;;;9.63;5.00;;;25.70;1.00;;;;;;5055505;28;20463;-76
2022/06/24 07:12:39;;;;;;;8.27;5.33;;;25.90;1.00;;;;;;5054138;28;20463;-76
2022/06/24 07:15:07;;;;;;;9.93;5.30;;;26.10;1.00;;;;;;5056422;28;20464;-77
2022/06/24 07:17:34;;;;;;;12.20;4.43;;;26.10;1.00;;;;;;5057058;28;20476;-76
2022/06/24 07:20:03;;;;;;;9.47;4.93;;;26.10;1.00;;;;;;5048794;28;20543;-76
2022/06/24 07:22:31;;;;;;;6.97;4.23;;;26.20;1.00;;;;;;5055803;28;20456;-76
2022/06/24 07:24:58;;;;;;;8.40;4.50;;;26.30;1.00;;;;;;5053079;28;20466;-76
2022/06/24 07:27:25;;;;;;;8.83;4.90;;;26.40;1.00;;;;;;5053611;28;20576;-76
2022/06/24 07:29:52;;;;;;;9.47;5.13;;;26.60;1.00;;;;;;5048956;28;20452;-76
2022/06/24 07:32:19;;;;;;;10.30;4.40;;;26.70;1.00;;;;;;5048752;28;20463;-76
2022/06/24 07:34:46;;;;;;;8.20;4.23;;;26.90;1.00;;;;;;5050086;28;20911;-76
2022/06/24 07:37:13;;;;;;;9.40;4.97;;;27.10;1.00;;;;;;5044867;28;20562;-76
2022/06/24 07:39:41;;;;;;;7.07;4.20;;;27.10;1.00;;;;;;5059160;28;20447;-76
2022/06/24 07:42:08;;;;;;;8.43;4.70;;;27.10;1.00;;;;;;5057612;28;20472;-75
2022/06/24 07:44:35;;;;;;;9.67;4.50;;;27.30;1.00;;;;;;5051409;28;20531;-75
2022/06/24 07:47:02;;;;;;;7.60;4.40;;;27.40;1.00;;;;;;5057896;28;20454;-78
2022/06/24 07:49:29;;;;;;;7.00;4.20;;;27.50;1.00;;;;;;5051198;28;20433;-77
2022/06/24 07:51:56;;;;;;;9.20;4.13;;;27.60;1.00;;;;;;5050660;28;20494;-78
2022/06/24 07:54:24;;;;;;;8.50;4.00;;;27.70;1.00;;;;;;5061323;28;20452;-75
2022/06/24 07:56:57;;;;;;;8.80;4.37;;;27.70;1.00;;;;;;5049455;28;20575;-80
2022/06/24 07:59:24;;;;;;;7.80;3.70;;;27.80;1.00;;;;;;5052529;28;20452;-77
2022/06/24 08:01:52;;;;;;;11.80;4.20;;;27.90;1.00;;;;;;5053215;28;20469;-79
2022/06/24 08:04:19;;;;;;;7.20;3.87;;;28.00;1.00;;;;;;5067890;28;20460;-77
2022/06/24 08:06:49;;;;;;;8.80;4.40;;;28.10;1.00;;;;;;5059465;28;20468;-78
2022/06/24 08:09:20;;;;;;;10.53;4.53;;;28.20;1.00;;;;;;5046259;28;20974;-79
2022/06/24 08:11:48;;;;;;;6.57;3.90;;;28.30;1.00;;;;;;5057852;28;20466;-80
2022/06/24 08:14:17;;;;;;;8.03;4.00;;;28.30;1.00;;;;;;5058786;28;20555;-77
2022/06/24 08:16:45;;;;;;;7.23;4.30;;;28.50;1.00;;;;;;5052856;28;20479;-78
2022/06/24 08:19:12;;;;;;;9.57;4.30;;;28.50;1.00;;;;;;5052017;28;20544;-78
2022/06/24 08:21:39;;;;;;;7.10;3.70;;;28.50;1.00;;;;;;5052212;28;20467;-77
2022/06/24 08:24:06;;;;;;;16.83;4.70;;;28.50;1.00;;;;;;5062899;28;21192;-78
2022/06/24 08:26:34;;;;;;;8.77;3.90;;;28.50;1.00;;;;;;5059069;28;20439;-78
2022/06/24 08:29:01;;;;;;;9.53;4.17;;;28.60;1.00;;;;;;5059123;28;20425;-78
2022/06/24 08:31:29;;;;;;;10.63;5.50;;;28.70;1.00;;;;;;5052380;28;20474;-77
2022/06/24 08:33:56;;;;;;;7.70;4.30;;;28.80;1.00;;;;;;5058003;28;20479;-77
2022/06/24 08:36:26;;;;;;;7.70;4.30;;;28.80;1.00;;;;;;5050162;28;20444;-77
2022/06/24 08:38:53;;;;;;;8.90;5.13;;;28.80;1.00;;;;;;5049536;28;20443;-79
2022/06/24 08:41:24;;;;;;;7.63;4.30;;;28.80;1.00;;;;;;5058261;28;20598;-83
2022/06/24 08:43:52;;;;;;;9.33;4.70;;;29.00;1.00;;;;;;5063567;28;20447;-81
2022/06/24 08:46:21;;;;;;;8.23;4.40;;;29.20;1.00;;;;;;5057146;28;20486;-81
2022/06/24 08:48:49;;;;;;;6.80;4.30;;;29.30;1.00;;;;;;5061650;28;20412;-81
2022/06/24 08:51:17;;;;;;;10.37;4.40;;;29.20;1.00;;;;;;5057780;28;20495;-82
2022/06/24 08:53:45;;;;;;;9.30;3.97;;;29.20;1.00;;;;;;5057431;28;21167;-81
2022/06/24 08:56:12;;;;;;;6.83;3.93;;;29.30;1.00;;;;;;5047368;28;20480;-79
2022/06/24 08:58:40;;;;;;;9.23;4.40;;;29.40;1.00;;;;;;5054568;28;20452;-82
2022/06/24 09:01:07;;;;;;;9.33;4.43;;;29.50;1.00;;;;;;5060682;28;21294;-85
2022/06/24 09:03:35;;;;;;;7.53;3.90;;;29.70;1.00;;;;;;5061003;28;20530;-82
2022/06/24 09:06:14;;;;;;;8.00;4.70;;;29.60;1.00;;;;;;5056420;28;20545;-84
2022/06/24 09:08:45;;;;;;;7.07;4.90;;;29.70;1.00;;;;;;5057660;28;20515;-77
2022/06/24 09:11:12;;;;;;;10.90;5.00;;;29.80;1.00;;;;;;5052083;28;20455;-78
2022/06/24 09:13:43;;;;;;;5.50;3.47;;;29.80;1.00;;;;;;5051646;28;20504;-76
2022/06/24 09:16:11;;;;;;;6.50;3.93;;;30.00;1.00;;;;;;5050364;28;21165;-75
2022/06/24 09:18:39;;;;;;;6.63;3.70;;;30.10;1.00;;;;;;5054081;28;20456;-75
2022/06/24 09:21:07;;;;;;;7.23;4.00;;;29.90;1.00;;;;;;5056320;28;21062;-75
2022/06/24 09:23:52;;;;;;;7.83;4.20;;;29.90;1.00;;;;;;5039784;28;21254;-75
2022/06/24 09:26:30;;;;;;;6.07;3.90;;;30.10;1.00;;;;;;5048804;28;20474;-77
2022/06/24 09:28:57;;;;;;;7.07;3.83;;;30.20;1.00;;;;;;5047840;28;21045;-76
2022/06/24 09:31:26;;;;;;;6.67;3.87;;;30.30;1.00;;;;;;5054781;28;20484;-76
2022/06/24 09:33:54;;;;;;;6.70;4.20;;;30.40;1.00;;;;;;5055168;28;20870;-75
2022/06/24 09:36:24;;;;;;;6.37;3.93;;;30.40;1.00;;;;;;5049479;28;20802;-76
2022/06/24 09:39:00;;;;;;;6.57;4.00;;;30.40;1.00;;;;;;5051912;28;20800;-76
2022/06/24 09:41:29;;;;;;;7.07;3.43;;;30.70;1.00;;;;;;5047691;28;20467;-76
2022/06/24 09:43:59;;;;;;;6.67;3.43;;;31.50;1.00;;;;;;5052784;28;20457;-76
2022/06/24 09:46:27;;;;;;;5.63;2.90;;;33.10;1.00;;;;;;5049532;28;20474;-76
2022/06/24 09:49:04;;;;;;;8.27;3.37;;;34.20;1.00;;;;;;5061586;28;21660;-76
2022/06/24 09:51:31;;;;;;;5.67;3.27;;;34.50;1.00;;;;;;5043965;28;20481;-77
2022/06/24 09:54:00;;;;;;;6.27;3.67;;;35.00;1.00;;;;;;5061457;28;20463;-76
2022/06/24 09:56:29;;;;;;;8.90;4.23;;;35.70;1.00;;;;;;5051897;28;20476;-76
2022/06/24 10:01:43;;;;;;;7.87;4.00;;;37.00;1.00;;;;;;5067151;28;20507;-75
2022/06/24 10:04:14;;;;;;;6.57;3.73;;;37.60;1.00;;;;;;5052752;28;20474;-76
2022/06/24 10:06:44;;;;;;;5.90;3.10;;;36.90;1.00;;;;;;5052110;28;20476;-77
2022/06/24 10:09:13;;;;;;;9.70;6.93;;;37.60;1.00;;;;;;5062106;28;20460;-74
2022/06/24 10:11:43;;;;;;;5.17;3.07;;;38.60;1.00;;;;;;5057923;28;20452;-74
2022/06/24 10:14:12;;;;;;;7.00;2.93;;;38.50;1.00;;;;;;5050754;28;20515;-76
2022/06/24 10:16:42;;;;;;;9.27;3.53;;;38.70;1.00;;;;;;5045199;28;20444;-76
2022/06/24 10:19:11;;;;;;;5.40;2.90;;;38.90;1.00;;;;;;5049857;28;20462;-77
2022/06/24 10:21:39;;;;;;;7.00;3.03;;;39.50;1.00;;;;;;5055332;28;20835;-76
2022/06/24 10:24:16;;;;;;;6.07;3.07;;;40.10;1.00;;;;;;5056650;28;20471;-77
2022/06/24 10:26:46;;;;;;;8.87;3.53;;;39.80;1.00;;;;;;5053597;28;20874;-77
2022/06/24 10:29:24;;;;;;;5.30;2.93;;;40.50;1.00;;;;;;5060842;28;20463;-77
2022/06/24 10:31:53;;;;;;;5.90;2.70;;;41.10;1.00;;;;;;5060257;28;20551;-77
2022/06/24 10:34:43;;;;;;;8.47;3.47;;;41.30;1.00;;;;;;5053561;28;20574;-76
2022/06/24 10:37:27;;;;;;;6.27;3.40;;;40.10;1.00;;;;;;5052208;28;20558;-75
2022/06/24 10:39:58;;;;;;;6.00;3.07;;;40.50;1.00;;;;;;5053210;28;20850;-75
2022/06/24 10:42:30;;;;;;;7.43;3.27;;;40.10;1.00;;;;;;5057934;28;20521;-76
2022/06/24 10:45:07;;;;;;;7.13;3.30;;;40.00;1.00;;;;;;5046550;28;20970;-77
2022/06/24 10:47:41;;;;;;;6.13;3.13;;;40.70;1.00;;;;;;5049462;28;20460;-76
2022/06/24 10:50:20;;;;;;;6.13;3.30;;;41.40;1.00;;;;;;5048937;28;20449;-76
2022/06/24 10:53:03;;;;;;;6.47;4.47;;;41.50;1.00;;;;;;5050497;28;20449;-75
2022/06/24 10:55:38;;;;;;;5.67;3.30;;;41.00;1.00;;;;;;5040115;28;20440;-75
2022/06/24 10:58:09;;;;;;;6.63;2.90;;;41.10;1.00;;;;;;5038125;28;20532;-75
2022/06/24 11:00:53;;;;;;;9.10;3.57;;;41.20;1.00;;;;;;5050792;28;20975;-75
2022/06/24 11:03:23;;;;;;;10.17;4.03;;;41.10;1.00;;;;;;5060367;28;20503;-77
2022/06/24 11:05:51;;;;;;;6.47;3.87;;;41.10;1.00;;;;;;5048796;28;20506;-75
2022/06/24 11:08:19;;;;;;;6.20;3.63;;;41.30;1.00;;;;;;5047122;28;20479;-74
2022/06/24 11:10:49;;;;;;;5.77;3.40;;;41.60;1.00;;;;;;5044759;28;20453;-76
2022/06/24 11:13:17;;;;;;;9.00;4.03;;;41.90;1.00;;;;;;5038913;28;20551;-77
2022/06/24 11:15:46;;;;;;;6.10;3.30;;;41.60;1.00;;;;;;5058929;28;20456;-77
2022/06/24 11:18:14;;;;;;;8.17;3.80;;;40.90;1.00;;;;;;5043825;28;20550;-77
2022/06/24 11:20:54;;;;;;;6.60;3.70;;;41.30;1.00;;;;;;5046127;28;20445;-75
2022/06/24 11:23:23;;;;;;;6.93;4.30;;;40.80;1.00;;;;;;5050721;28;20587;-77
2022/06/24 11:25:55;;;;;;;6.50;4.30;;;41.40;1.00;;;;;;5059769;28;20984;-75
2022/06/24 11:28:29;;;;;;;7.60;3.80;;;41.90;1.00;;;;;;5063093;28;20961;-76
2022/06/24 11:31:13;;;;;;;7.57;4.10;;;41.70;1.00;;;;;;5046381;28;20471;-76
2022/06/24 11:33:40;;;;;;;7.10;4.07;;;41.00;1.00;;;;;;5051625;28;20572;-76
2022/06/24 11:36:09;;;;;;;7.67;4.20;;;40.90;1.00;;;;;;5046657;28;20496;-77
2022/06/24 11:38:49;;;;;;;8.00;4.47;;;40.90;1.00;;;;;;5060184;28;20609;-75
2022/06/24 11:41:27;;;;;;;8.27;3.80;;;41.30;1.00;;;;;;5056989;28;20462;-80
2022/06/24 11:43:56;;;;;;;7.20;4.70;;;40.90;1.00;;;;;;5054139;28;20520;-79
2022/06/24 11:46:25;;;;;;;7.27;4.00;;;40.60;1.00;;;;;;5052932;28;20505;-78
2022/06/24 11:49:06;;;;;;;8.70;3.97;;;39.20;1.00;;;;;;5055332;28;20498;-77
2022/06/24 11:51:34;;;;;;;6.77;4.33;;;39.20;1.00;;;;;;5061935;28;20467;-77
2022/06/24 11:54:02;;;;;;;7.80;3.97;;;38.90;1.00;;;;;;5056616;28;20539;-78
2022/06/24 11:56:33;;;;;;;6.97;4.17;;;38.90;1.00;;;;;;5058302;28;20546;-77
2022/06/24 11:59:01;;;;;;;9.00;3.90;;;38.80;1.00;;;;;;5061035;28;20463;-77
2022/06/24 12:01:30;;;;;;;5.67;3.60;;;38.80;1.00;;;;;;5062964;28;20445;-78
2022/06/24 12:03:59;;;;;;;6.90;3.70;;;38.90;1.00;;;;;;5061514;28;20471;-78
2022/06/24 12:06:27;;;;;;;9.63;4.10;;;38.90;1.00;;;;;;5043954;28;20851;-77
2022/06/24 12:08:56;;;;;;;8.00;3.80;;;38.70;1.00;;;;;;5040072;28;21007;-76
2022/06/24 12:11:24;;;;;;;15.53;4.80;;;38.50;1.00;;;;;;5049891;28;20525;-79
2022/06/24 12:13:59;;;;;;;8.77;3.60;;;38.10;1.00;;;;;;5056696;28;20469;-76
2022/06/24 12:16:27;;;;;;;7.93;4.27;;;38.40;1.00;;;;;;5048564;28;20463;-79
2022/06/24 12:18:54;;;;;;;5.97;3.57;;;38.60;1.00;;;;;;5056275;28;20859;-76
2022/06/24 12:21:26;;;;;;;9.40;4.37;;;38.40;1.00;;;;;;5060238;28;20478;-78
2022/06/24 12:23:53;;;;;;;8.90;3.80;;;37.30;1.00;;;;;;5061034;28;20479;-80
2022/06/24 12:26:22;;;;;;;16.40;4.80;;;37.80;1.00;;;;;;5062904;28;20479;-76
2022/06/24 12:29:01;;;;;;;7.33;3.60;;;38.00;1.00;;;;;;5057923;28;20475;-77
2022/06/24 12:31:29;;;;;;;6.10;3.20;;;37.80;1.00;;;;;;5058799;28;20477;-77
2022/06/24 12:33:57;;;;;;;6.13;3.23;;;37.90;1.00;;;;;;5058013;28;20468;-76
2022/06/24 12:36:25;;;;;;;7.47;2.80;;;38.60;1.00;;;;;;5059134;28;20635;-79
2022/06/24 12:39:04;;;;;;;9.20;4.10;;;39.40;1.00;;;;;;5059564;28;20499;-78
2022/06/24 12:41:43;;;;;;;8.03;3.33;;;40.40;1.00;;;;;;5061091;28;20467;-79
2022/06/24 12:44:11;;;;;;;11.77;4.13;;;41.10;1.00;;;;;;5057716;28;20438;-77
2022/06/24 12:52:10;;;;;;;6.60;2.80;;;42.00;1.00;;;;;;5048004;28;20518;-78
2022/06/24 12:54:37;;;;;;;5.60;2.53;;;42.20;1.00;;;;;;5051326;28;20464;-77
2022/06/24 12:57:05;;;;;;;8.20;3.23;;;42.30;1.00;;;;;;5063305;28;20547;-78
2022/06/24 12:59:33;;;;;;;6.50;2.37;;;41.90;1.00;;;;;;5062418;28;20495;-79
2022/06/24 13:02:00;;;;;;;5.87;2.60;;;40.80;1.00;;;;;;5067407;28;20491;-78
2022/06/24 13:04:30;;;;;;;6.40;2.60;;;40.30;1.00;;;;;;5063799;28;20574;-78
2022/06/24 13:06:57;;;;;;;5.80;2.93;;;40.90;1.00;;;;;;5054945;28;20564;-78
2022/06/24 13:09:23;;;;;;;9.23;3.83;;;41.10;1.00;;;;;;5053833;28;20543;-77
2022/06/24 13:11:50;;;;;;;8.40;2.53;;;40.80;1.00;;;;;;5065134;28;20499;-77
2022/06/24 13:14:17;;;;;;;5.80;2.57;;;41.70;1.00;;;;;;5051151;28;20563;-77
2022/06/24 13:16:45;;;;;;;6.40;2.47;;;42.20;1.00;;;;;;5044376;28;20476;-77
2022/06/24 13:19:13;;;;;;;7.37;2.67;;;42.70;1.00;;;;;;5055301;28;20486;-78
2022/06/24 13:21:41;;;;;;;7.80;2.70;;;43.20;1.00;;;;;;5058273;28;20492;-82